createdAt,value
2018-03-01T00:00:26.235Z,63.00
2018-03-01T00:01:26.217Z,62.81
2018-03-01T00:02:26.201Z,63.10
2018-03-01T00:03:26.185Z,62.91
2018-03-01T00:04:26.167Z,63.00
2018-03-01T00:05:26.153Z,62.81
2018-03-01T00:06:26.137Z,63.10
2018-03-01T00:07:26.120Z,62.72
2018-03-01T00:08:26.103Z,62.72
2018-03-01T00:09:26.086Z,62.34
2018-03-01T00:10:26.070Z,62.25
2018-03-01T00:11:26.054Z,62.53
2018-03-01T00:12:26.042Z,62.25
2018-03-01T00:13:26.019Z,61.96
2018-03-01T00:14:26.001Z,61.96
2018-03-01T00:15:25.985Z,62.06
2018-03-01T00:16:25.966Z,62.72
2018-03-01T00:17:25.952Z,62.25
2018-03-01T00:18:25.937Z,62.62
2018-03-01T00:19:25.919Z,62.15
2018-03-01T00:20:25.903Z,62.06
2018-03-01T00:21:25.883Z,61.87
2018-03-01T00:22:25.866Z,62.06
2018-03-01T00:23:25.850Z,61.87
2018-03-01T00:24:25.832Z,62.53
2018-03-01T00:25:25.814Z,62.72
2018-03-01T00:26:25.800Z,62.25
2018-03-01T00:27:25.784Z,62.43
2018-03-01T00:28:25.764Z,62.25
2018-03-01T00:29:25.750Z,62.72
2018-03-01T00:30:25.733Z,62.43
2018-03-01T00:31:25.718Z,62.25
2018-03-01T00:32:25.700Z,62.25
2018-03-01T00:33:25.682Z,62.06
2018-03-01T00:34:25.666Z,62.25
2018-03-01T00:35:25.650Z,62.06
2018-03-01T00:36:25.631Z,62.06
2018-03-01T00:37:25.613Z,62.15
2018-03-01T00:38:25.596Z,62.06
2018-03-01T00:39:25.613Z,62.15
2018-03-01T00:40:25.561Z,61.96
2018-03-01T00:41:25.546Z,61.77
2018-03-01T00:42:25.528Z,61.87
2018-03-01T00:43:25.515Z,62.53
2018-03-01T00:44:25.522Z,63.10
2018-03-01T00:45:25.481Z,62.81
2018-03-01T00:46:25.463Z,63.10
2018-03-01T00:47:25.446Z,63.10
2018-03-01T00:48:25.429Z,63.10
2018-03-01T00:49:25.414Z,63.57
2018-03-01T00:50:25.397Z,63.10
2018-03-01T00:51:25.381Z,63.29
2018-03-01T00:52:25.362Z,63.66
2018-03-01T00:53:25.343Z,63.66
2018-03-01T00:54:25.326Z,63.47
2018-03-01T00:55:25.309Z,63.76
2018-03-01T00:56:25.293Z,63.66
2018-03-01T00:57:25.275Z,63.38
2018-03-01T00:58:25.258Z,63.66
2018-03-01T00:59:25.242Z,63.76
2018-03-01T01:00:25.225Z,63.66
2018-03-01T01:01:25.211Z,63.57
2018-03-01T01:02:25.200Z,63.38
2018-03-01T01:03:25.177Z,63.57
2018-03-01T01:04:25.162Z,63.85
2018-03-01T01:05:25.144Z,63.76
2018-03-01T01:06:25.137Z,63.85
2018-03-01T01:07:25.110Z,63.57
2018-03-01T01:08:25.093Z,63.66
2018-03-01T01:09:25.074Z,63.85
2018-03-01T01:10:25.058Z,63.85
2018-03-01T01:11:25.042Z,64.04
2018-03-01T01:12:25.028Z,63.95
2018-03-01T01:13:25.007Z,63.85
2018-03-01T01:14:24.999Z,63.85
2018-03-01T01:15:24.978Z,63.66
2018-03-01T01:16:24.956Z,63.95
2018-03-01T01:17:24.942Z,63.57
2018-03-01T01:18:24.927Z,64.14
2018-03-01T01:19:24.909Z,63.95
2018-03-01T01:20:24.893Z,63.66
2018-03-01T01:21:24.873Z,64.70
2018-03-01T01:22:24.856Z,64.89
2018-03-01T01:23:24.840Z,64.23
2018-03-01T01:24:24.822Z,64.61
2018-03-01T01:25:24.809Z,64.79
2018-03-01T01:26:24.792Z,64.79
2018-03-01T01:27:24.775Z,64.32
2018-03-01T01:28:24.758Z,64.51
2018-03-01T01:29:24.742Z,65.26
2018-03-01T01:30:24.728Z,65.36
2018-03-01T01:31:24.709Z,64.79
2018-03-01T01:32:25.241Z,64.89
2018-03-01T01:33:24.673Z,64.89
2018-03-01T01:34:24.655Z,64.89
2018-03-01T01:35:24.639Z,64.89
2018-03-01T01:36:24.625Z,64.51
2018-03-01T01:37:24.606Z,64.32
2018-03-01T01:38:24.588Z,64.42
2018-03-01T01:39:24.618Z,64.70
2018-03-01T01:40:24.555Z,65.17
2018-03-01T01:41:24.541Z,65.36
2018-03-01T01:42:24.528Z,65.08
2018-03-01T01:43:24.508Z,64.89
2018-03-01T01:44:24.490Z,65.08
2018-03-01T01:45:24.475Z,65.26
2018-03-01T01:46:24.458Z,64.98
2018-03-01T01:47:24.442Z,65.08
2018-03-01T01:48:24.452Z,64.89
2018-03-01T01:49:24.404Z,65.08
2018-03-01T01:50:24.390Z,65.26
2018-03-01T01:51:24.372Z,65.17
2018-03-01T01:52:24.355Z,65.36
2018-03-01T01:53:24.337Z,65.45
2018-03-01T01:54:24.321Z,65.26
2018-03-01T01:55:24.304Z,65.73
2018-03-01T01:56:24.286Z,65.83
2018-03-01T01:57:24.274Z,65.45
2018-03-01T01:58:24.258Z,65.17
2018-03-01T01:59:24.241Z,65.26
2018-03-01T02:00:24.226Z,65.26
2018-03-01T02:01:24.206Z,64.98
2018-03-01T02:02:24.190Z,64.79
2018-03-01T02:03:24.174Z,64.04
2018-03-01T02:04:24.159Z,63.76
2018-03-01T02:05:24.138Z,64.04
2018-03-01T02:06:24.120Z,63.57
2018-03-01T02:07:24.104Z,63.57
2018-03-01T02:08:24.086Z,63.10
2018-03-01T02:09:24.073Z,63.00
2018-03-01T02:10:24.054Z,63.10
2018-03-01T02:11:24.037Z,62.72
2018-03-01T02:12:24.019Z,62.25
2018-03-01T02:13:24.006Z,62.62
2018-03-01T02:14:23.990Z,62.15
2018-03-01T02:15:23.973Z,62.06
2018-03-01T02:16:23.954Z,61.77
2018-03-01T02:17:23.938Z,61.58
2018-03-01T02:18:23.922Z,61.58
2018-03-01T02:19:23.905Z,61.49
2018-03-01T02:20:23.888Z,61.40
2018-03-01T02:21:23.868Z,61.87
2018-03-01T02:22:23.851Z,61.58
2018-03-01T02:23:23.834Z,61.49
2018-03-01T02:24:23.816Z,61.40
2018-03-01T02:25:23.800Z,60.93
2018-03-01T02:26:23.783Z,61.02
2018-03-01T02:27:23.766Z,61.02
2018-03-01T02:28:23.749Z,60.27
2018-03-01T02:29:23.734Z,60.64
2018-03-01T02:30:23.719Z,60.36
2018-03-01T02:31:23.702Z,60.55
2018-03-01T02:32:23.695Z,60.46
2018-03-01T02:33:23.669Z,60.64
2018-03-01T02:34:23.650Z,60.46
2018-03-01T02:35:23.633Z,60.36
2018-03-01T02:36:23.615Z,60.83
2018-03-01T02:37:23.597Z,60.17
2018-03-01T02:38:23.580Z,60.46
2018-03-01T02:39:23.562Z,59.99
2018-03-01T02:40:23.545Z,60.27
2018-03-01T02:41:23.527Z,59.99
2018-03-01T02:42:23.513Z,59.99
2018-03-01T02:43:23.498Z,59.70
2018-03-01T02:44:23.479Z,59.80
2018-03-01T02:45:23.462Z,60.17
2018-03-01T02:46:23.445Z,59.80
2018-03-01T02:47:23.428Z,59.89
2018-03-01T02:48:23.411Z,59.89
2018-03-01T02:49:23.399Z,60.08
2018-03-01T02:50:23.378Z,60.17
2018-03-01T02:51:23.362Z,59.51
2018-03-01T02:52:23.343Z,59.99
2018-03-01T02:53:23.323Z,59.80
2018-03-01T02:54:23.306Z,59.89
2018-03-01T02:55:23.289Z,59.99
2018-03-01T02:56:23.271Z,59.70
2018-03-01T02:57:23.253Z,59.80
2018-03-01T02:58:23.237Z,59.33
2018-03-01T02:59:23.220Z,59.61
2018-03-01T03:00:23.205Z,59.04
2018-03-01T03:01:23.189Z,59.61
2018-03-01T03:02:23.171Z,59.51
2018-03-01T03:03:23.155Z,59.42
2018-03-01T03:04:23.137Z,59.51
2018-03-01T03:05:23.120Z,59.51
2018-03-01T03:06:23.103Z,59.23
2018-03-01T03:07:23.087Z,59.14
2018-03-01T03:08:23.068Z,59.23
2018-03-01T03:09:23.048Z,59.33
2018-03-01T03:10:23.031Z,59.23
2018-03-01T03:11:23.015Z,59.14
2018-03-01T03:12:22.996Z,59.33
2018-03-01T03:13:22.979Z,59.23
2018-03-01T03:14:22.962Z,59.33
2018-03-01T03:15:22.944Z,59.14
2018-03-01T03:16:22.927Z,59.42
2018-03-01T03:17:22.914Z,58.85
2018-03-01T03:18:22.898Z,59.14
2018-03-01T03:19:22.880Z,59.04
2018-03-01T03:20:22.861Z,59.42
2018-03-01T03:21:22.852Z,59.14
2018-03-01T03:22:22.827Z,59.04
2018-03-01T03:23:22.811Z,58.57
2018-03-01T03:24:22.793Z,59.14
2018-03-01T03:25:22.775Z,58.85
2018-03-01T03:26:22.756Z,58.85
2018-03-01T03:27:22.738Z,59.14
2018-03-01T03:28:22.721Z,58.95
2018-03-01T03:29:22.711Z,58.95
2018-03-01T03:30:22.696Z,58.76
2018-03-01T03:31:22.673Z,58.66
2018-03-01T03:32:22.655Z,59.14
2018-03-01T03:33:22.636Z,59.14
2018-03-01T03:34:22.617Z,59.23
2018-03-01T03:35:22.603Z,59.04
2018-03-01T03:36:22.584Z,59.14
2018-03-01T03:37:22.565Z,59.33
2018-03-01T03:38:22.549Z,58.66
2018-03-01T03:39:22.532Z,58.85
2018-03-01T03:40:22.515Z,58.66
2018-03-01T03:41:22.499Z,59.04
2018-03-01T03:42:22.484Z,58.76
2018-03-01T03:43:22.467Z,58.95
2018-03-01T03:44:22.449Z,58.76
2018-03-01T03:45:22.432Z,58.66
2018-03-01T03:46:22.414Z,59.42
2018-03-01T03:47:22.397Z,58.95
2018-03-01T03:48:22.380Z,58.95
2018-03-01T03:49:22.361Z,59.04
2018-03-01T03:50:22.345Z,59.04
2018-03-01T03:51:22.325Z,58.95
2018-03-01T03:52:22.308Z,58.95
2018-03-01T03:53:22.291Z,58.85
2018-03-01T03:54:22.282Z,59.04
2018-03-01T03:55:22.258Z,58.95
2018-03-01T03:56:22.240Z,58.85
2018-03-01T03:57:22.227Z,58.85
2018-03-01T03:58:22.210Z,58.95
2018-03-01T03:59:22.192Z,59.04
2018-03-01T04:00:22.175Z,58.57
2018-03-01T04:01:22.159Z,58.57
2018-03-01T04:02:22.141Z,58.57
2018-03-01T04:03:22.124Z,58.85
2018-03-01T04:04:22.106Z,59.14
2018-03-01T04:05:22.086Z,58.85
2018-03-01T04:06:22.069Z,58.95
2018-03-01T04:07:22.053Z,58.85
2018-03-01T04:08:22.034Z,59.23
2018-03-01T04:09:22.018Z,59.04
2018-03-01T04:10:22.001Z,58.95
2018-03-01T04:11:21.986Z,58.95
2018-03-01T04:12:21.967Z,58.95
2018-03-01T04:13:21.953Z,58.76
2018-03-01T04:14:21.937Z,59.23
2018-03-01T04:15:21.918Z,59.23
2018-03-01T04:16:21.901Z,59.04
2018-03-01T04:17:21.885Z,59.14
2018-03-01T04:18:21.867Z,58.95
2018-03-01T04:19:21.851Z,59.04
2018-03-01T04:20:21.833Z,58.76
2018-03-01T04:21:21.814Z,58.66
2018-03-01T04:22:21.796Z,58.47
2018-03-01T04:23:21.779Z,58.85
2018-03-01T04:24:21.762Z,58.47
2018-03-01T04:25:21.745Z,59.04
2018-03-01T04:26:21.728Z,59.14
2018-03-01T04:27:21.712Z,59.14
2018-03-01T04:28:21.694Z,59.04
2018-03-01T04:29:21.679Z,58.76
2018-03-01T04:30:21.662Z,58.85
2018-03-01T04:31:21.646Z,58.38
2018-03-01T04:32:21.632Z,58.95
2018-03-01T04:33:21.609Z,59.04
2018-03-01T04:34:21.592Z,59.04
2018-03-01T04:35:21.575Z,59.04
2018-03-01T04:36:21.558Z,59.04
2018-03-01T04:37:21.542Z,59.04
2018-03-01T04:38:21.527Z,59.04
2018-03-01T04:39:21.510Z,59.23
2018-03-01T04:40:21.492Z,59.51
2018-03-01T04:41:21.475Z,59.23
2018-03-01T04:42:21.458Z,59.42
2018-03-01T04:43:21.441Z,59.42
2018-03-01T04:44:21.431Z,59.51
2018-03-01T04:45:21.404Z,59.23
2018-03-01T04:46:21.387Z,59.51
2018-03-01T04:47:21.370Z,59.51
2018-03-01T04:48:21.352Z,59.51
2018-03-01T04:49:21.340Z,59.42
2018-03-01T04:50:21.318Z,59.42
2018-03-01T04:51:21.303Z,59.42
2018-03-01T04:52:21.284Z,59.42
2018-03-01T04:53:21.272Z,59.51
2018-03-01T04:54:21.258Z,59.23
2018-03-01T04:55:21.236Z,59.61
2018-03-01T04:56:21.218Z,59.23
2018-03-01T04:57:21.205Z,59.33
2018-03-01T04:58:21.187Z,59.23
2018-03-01T04:59:21.169Z,59.14
2018-03-01T05:00:21.151Z,59.04
2018-03-01T05:01:21.135Z,59.04
2018-03-01T05:02:21.116Z,59.14
2018-03-01T05:03:21.097Z,59.04
2018-03-01T05:04:21.081Z,59.04
2018-03-01T05:05:21.066Z,58.85
2018-03-01T05:06:21.047Z,58.85
2018-03-01T05:07:21.031Z,59.23
2018-03-01T05:08:21.014Z,59.23
2018-03-01T05:09:21.000Z,59.42
2018-03-01T05:10:20.983Z,59.51
2018-03-01T05:11:20.966Z,59.42
2018-03-01T05:12:20.948Z,59.42
2018-03-01T05:13:20.931Z,59.51
2018-03-01T05:14:20.915Z,59.33
2018-03-01T05:15:20.898Z,59.33
2018-03-01T05:16:20.882Z,59.23
2018-03-01T05:17:20.860Z,59.33
2018-03-01T05:18:20.844Z,59.42
2018-03-01T05:19:20.827Z,59.42
2018-03-01T05:20:20.819Z,59.42
2018-03-01T05:21:20.794Z,59.42
2018-03-01T05:22:20.776Z,59.61
2018-03-01T05:23:20.760Z,59.33
2018-03-01T05:24:20.743Z,59.04
2018-03-01T05:25:20.730Z,59.23
2018-03-01T05:26:20.715Z,59.51
2018-03-01T05:27:20.696Z,59.33
2018-03-01T05:28:20.676Z,59.14
2018-03-01T05:29:20.661Z,59.23
2018-03-01T05:30:20.645Z,59.23
2018-03-01T05:31:20.681Z,59.42
2018-03-01T05:32:20.610Z,59.42
2018-03-01T05:33:20.591Z,59.33
2018-03-01T05:34:20.574Z,59.42
2018-03-01T05:35:20.557Z,59.33
2018-03-01T05:36:20.540Z,59.23
2018-03-01T05:37:20.574Z,58.95
2018-03-01T05:38:20.509Z,59.14
2018-03-01T05:39:20.493Z,59.14
2018-03-01T05:40:20.473Z,59.04
2018-03-01T05:41:20.454Z,59.14
2018-03-01T05:42:20.438Z,59.14
2018-03-01T05:43:20.422Z,58.95
2018-03-01T05:44:20.402Z,59.14
2018-03-01T05:45:20.391Z,59.14
2018-03-01T05:46:20.370Z,59.14
2018-03-01T05:47:20.354Z,59.14
2018-03-01T05:48:20.336Z,59.04
2018-03-01T05:49:20.322Z,59.17
2018-03-01T05:50:20.305Z,59.14
2018-03-01T05:51:20.290Z,59.04
2018-03-01T05:52:20.273Z,59.14
2018-03-01T05:53:20.254Z,59.07
2018-03-01T05:54:20.239Z,59.07
2018-03-01T05:55:20.221Z,59.14
2018-03-01T05:56:20.204Z,59.14
2018-03-01T05:57:20.184Z,59.14
2018-03-01T05:58:20.167Z,59.04
2018-03-01T05:59:20.152Z,58.57
2018-03-01T06:00:20.132Z,58.69
2018-03-01T06:01:20.116Z,58.50
2018-03-01T06:02:20.099Z,58.79
2018-03-01T06:03:20.084Z,58.76
2018-03-01T06:04:20.066Z,58.66
2018-03-01T06:05:20.052Z,59.04
2018-03-01T06:06:20.041Z,59.04
2018-03-01T06:07:20.021Z,59.14
2018-03-01T06:08:20.001Z,59.42
2018-03-01T06:09:19.983Z,59.23
2018-03-01T06:10:19.966Z,59.23
2018-03-01T06:11:19.950Z,59.23
2018-03-01T06:12:19.932Z,59.23
2018-03-01T06:13:19.913Z,59.42
2018-03-01T06:14:19.896Z,59.23
2018-03-01T06:15:19.885Z,59.42
2018-03-01T06:16:19.861Z,59.04
2018-03-01T06:17:19.844Z,59.61
2018-03-01T06:18:19.828Z,59.33
2018-03-01T06:19:19.811Z,59.42
2018-03-01T06:20:19.793Z,59.61
2018-03-01T06:21:19.780Z,59.42
2018-03-01T06:22:19.763Z,59.14
2018-03-01T06:23:19.746Z,59.23
2018-03-01T06:24:19.728Z,59.42
2018-03-01T06:25:19.711Z,59.33
2018-03-01T06:26:19.693Z,59.99
2018-03-01T06:27:19.680Z,59.80
2018-03-01T06:28:19.659Z,59.61
2018-03-01T06:29:19.640Z,59.61
2018-03-01T06:30:19.624Z,59.51
2018-03-01T06:31:19.607Z,59.61
2018-03-01T06:32:19.590Z,59.51
2018-03-01T06:33:19.572Z,59.33
2018-03-01T06:34:19.555Z,59.80
2018-03-01T06:35:19.539Z,59.23
2018-03-01T06:36:19.521Z,59.64
2018-03-01T06:37:19.506Z,59.45
2018-03-01T06:38:19.491Z,59.26
2018-03-01T06:39:19.473Z,59.26
2018-03-01T06:40:19.456Z,59.23
2018-03-01T06:41:19.436Z,59.17
2018-03-01T06:42:19.419Z,59.04
2018-03-01T06:43:19.403Z,59.26
2018-03-01T06:44:19.384Z,59.14
2018-03-01T06:45:19.370Z,59.04
2018-03-01T06:46:19.354Z,59.35
2018-03-01T06:47:19.337Z,59.64
2018-03-01T06:48:19.319Z,59.26
2018-03-01T06:49:19.302Z,59.17
2018-03-01T06:50:19.291Z,59.07
2018-03-01T06:51:19.271Z,59.07
2018-03-01T06:52:19.253Z,58.88
2018-03-01T06:53:19.232Z,59.07
2018-03-01T06:54:19.216Z,58.69
2018-03-01T06:55:19.200Z,58.50
2018-03-01T06:56:19.183Z,58.22
2018-03-01T06:57:19.170Z,58.69
2018-03-01T06:58:19.150Z,58.41
2018-03-01T06:59:19.134Z,58.41
2018-03-01T07:00:19.116Z,58.12
2018-03-01T07:01:19.103Z,58.31
2018-03-01T07:02:19.088Z,58.41
2018-03-01T07:03:19.071Z,58.12
2018-03-01T07:04:19.053Z,57.94
2018-03-01T07:05:19.037Z,58.03
2018-03-01T07:06:19.022Z,58.03
2018-03-01T07:07:19.004Z,58.31
2018-03-01T07:08:18.988Z,58.03
2018-03-01T07:09:18.968Z,58.22
2018-03-01T07:10:18.952Z,58.50
2018-03-01T07:11:18.953Z,58.22
2018-03-01T07:12:18.919Z,58.41
2018-03-01T07:13:18.904Z,58.22
2018-03-01T07:14:18.885Z,58.31
2018-03-01T07:15:18.874Z,58.25
2018-03-01T07:16:18.854Z,57.78
2018-03-01T07:17:18.842Z,57.59
2018-03-01T07:18:18.825Z,57.09
2018-03-01T07:19:18.809Z,57.18
2018-03-01T07:20:18.795Z,57.31
2018-03-01T07:21:18.782Z,57.18
2018-03-01T07:22:18.761Z,56.84
2018-03-01T07:23:18.747Z,57.21
2018-03-01T07:24:18.730Z,56.58
2018-03-01T07:25:18.712Z,56.39
2018-03-01T07:26:18.696Z,56.01
2018-03-01T07:27:18.682Z,55.44
2018-03-01T07:28:18.669Z,55.35
2018-03-01T07:29:18.651Z,54.34
2018-03-01T07:30:18.637Z,54.25
2018-03-01T07:31:18.624Z,53.77
2018-03-01T07:32:18.609Z,53.68
2018-03-01T07:33:18.597Z,53.30
2018-03-01T07:34:18.586Z,52.92
2018-03-01T07:35:18.571Z,52.36
2018-03-01T07:36:18.558Z,51.32
2018-03-01T07:37:18.545Z,51.50
2018-03-01T07:38:18.532Z,51.50
2018-03-01T07:39:18.520Z,50.94
2018-03-01T07:40:18.507Z,51.03
2018-03-01T07:41:18.492Z,51.22
2018-03-01T07:42:18.480Z,51.32
2018-03-01T07:43:18.468Z,50.56
2018-03-01T07:44:18.457Z,50.68
2018-03-01T07:45:18.448Z,50.21
2018-03-01T07:46:18.443Z,49.83
2018-03-01T07:47:18.425Z,50.21
2018-03-01T07:48:18.414Z,49.24
2018-03-01T07:49:18.399Z,49.35
2018-03-01T07:50:18.390Z,48.97
2018-03-01T07:51:18.380Z,49.07
2018-03-01T07:52:18.367Z,48.50
2018-03-01T07:53:18.357Z,48.20
2018-03-01T07:54:18.346Z,47.72
2018-03-01T07:55:18.337Z,48.36
2018-03-01T07:56:18.356Z,48.18
2018-03-01T07:57:18.318Z,49.05
2018-03-01T07:58:18.308Z,48.86
2018-03-01T07:59:18.297Z,48.65
2018-03-01T08:00:18.286Z,49.02
2018-03-01T08:01:18.275Z,48.93
2018-03-01T08:02:18.263Z,49.49
2018-03-01T08:03:18.253Z,49.49
2018-03-01T08:04:18.257Z,49.38
2018-03-01T08:05:18.227Z,49.09
2018-03-01T08:06:18.215Z,49.28
2018-03-01T08:07:18.204Z,49.66
2018-03-01T08:08:18.197Z,49.87
2018-03-01T08:09:18.179Z,49.76
2018-03-01T08:10:18.169Z,49.87
2018-03-01T08:11:18.170Z,50.06
2018-03-01T08:12:18.144Z,50.16
2018-03-01T08:13:18.134Z,50.16
2018-03-01T08:14:18.122Z,50.16
2018-03-01T08:15:18.110Z,50.35
2018-03-01T08:16:18.096Z,49.97
2018-03-01T08:17:18.085Z,49.97
2018-03-01T08:18:18.072Z,50.35
2018-03-01T08:19:18.060Z,50.44
2018-03-01T08:20:18.048Z,50.25
2018-03-01T08:21:18.032Z,49.99
2018-03-01T08:22:18.020Z,50.25
2018-03-01T08:23:18.010Z,50.21
2018-03-01T08:24:17.998Z,50.11
2018-03-01T08:25:18.028Z,49.33
2018-03-01T08:26:17.971Z,48.93
2018-03-01T08:27:17.961Z,48.83
2018-03-01T08:28:17.948Z,49.52
2018-03-01T08:29:17.939Z,49.52
2018-03-01T08:30:17.928Z,49.05
2018-03-01T08:31:17.926Z,49.07
2018-03-01T08:32:17.908Z,49.01
2018-03-01T08:33:17.891Z,47.77
2018-03-01T08:34:17.882Z,47.99
2018-03-01T08:35:17.870Z,47.32
2018-03-01T08:36:17.860Z,46.36
2018-03-01T08:37:17.845Z,46.04
2018-03-01T08:38:17.835Z,46.36
2018-03-01T08:39:17.826Z,46.09
2018-03-01T08:40:17.816Z,46.00
2018-03-01T08:41:17.807Z,44.96
2018-03-01T08:42:17.797Z,45.12
2018-03-01T08:43:17.789Z,44.15
2018-03-01T08:44:17.779Z,44.46
2018-03-01T08:45:17.772Z,43.96
2018-03-01T08:46:17.765Z,43.87
2018-03-01T08:47:17.756Z,44.46
2018-03-01T08:48:17.747Z,44.37
2018-03-01T08:49:17.735Z,44.09
2018-03-01T08:50:17.726Z,44.18
2018-03-01T08:51:17.721Z,44.09
2018-03-01T08:52:17.709Z,43.80
2018-03-01T08:53:17.705Z,43.30
2018-03-01T08:54:17.696Z,43.61
2018-03-01T08:55:17.687Z,43.87
2018-03-01T08:56:17.681Z,43.40
2018-03-01T08:57:17.670Z,43.59
2018-03-01T08:58:17.662Z,43.96
2018-03-01T08:59:17.653Z,43.95
2018-03-01T09:00:17.644Z,43.96
2018-03-01T09:01:17.634Z,43.85
2018-03-01T09:02:17.624Z,44.25
2018-03-01T09:03:17.616Z,44.25
2018-03-01T09:04:17.604Z,43.76
2018-03-01T09:05:17.596Z,43.66
2018-03-01T09:06:17.585Z,44.53
2018-03-01T09:07:17.577Z,45.12
2018-03-01T09:08:17.567Z,44.34
2018-03-01T09:09:17.559Z,43.85
2018-03-01T09:10:17.550Z,43.59
2018-03-01T09:11:17.540Z,44.25
2018-03-01T09:12:17.530Z,44.37
2018-03-01T09:13:17.520Z,44.29
2018-03-01T09:14:17.509Z,44.01
2018-03-01T09:15:17.501Z,43.07
2018-03-01T09:16:17.490Z,43.07
2018-03-01T09:17:17.476Z,42.59
2018-03-01T09:18:17.468Z,42.59
2018-03-01T09:19:17.461Z,42.61
2018-03-01T09:20:17.450Z,42.04
2018-03-01T09:21:17.443Z,42.27
2018-03-01T09:22:17.435Z,41.21
2018-03-01T09:23:17.427Z,41.12
2018-03-01T09:24:17.418Z,40.25
2018-03-01T09:25:17.413Z,40.25
2018-03-01T09:26:17.407Z,40.26
2018-03-01T09:27:17.400Z,39.43
2018-03-01T09:28:17.391Z,39.81
2018-03-01T09:29:17.386Z,39.37
2018-03-01T09:30:17.382Z,38.89
2018-03-01T09:31:17.374Z,37.69
2018-03-01T09:32:17.367Z,37.52
2018-03-01T09:33:17.359Z,37.82
2018-03-01T09:34:17.353Z,37.54
2018-03-01T09:35:17.348Z,37.93
2018-03-01T09:36:17.344Z,37.67
2018-03-01T09:37:17.339Z,37.59
2018-03-01T09:38:17.334Z,36.17
2018-03-01T09:39:17.329Z,35.85
2018-03-01T09:40:17.324Z,35.94
2018-03-01T09:41:17.323Z,35.17
2018-03-01T09:42:17.319Z,35.17
2018-03-01T09:43:17.321Z,35.43
2018-03-01T09:44:17.312Z,35.15
2018-03-01T09:45:17.306Z,35.74
2018-03-01T09:46:17.303Z,34.94
2018-03-01T09:47:17.301Z,35.72
2018-03-01T09:48:17.295Z,35.81
2018-03-01T09:49:17.289Z,36.00
2018-03-01T09:50:17.285Z,35.62
2018-03-01T09:51:17.282Z,36.19
2018-03-01T09:52:17.276Z,36.21
2018-03-01T09:53:17.274Z,36.40
2018-03-01T09:54:17.271Z,36.51
2018-03-01T09:55:17.267Z,36.22
2018-03-01T09:56:17.261Z,35.77
2018-03-01T09:57:17.253Z,34.98
2018-03-01T09:58:17.248Z,35.07
2018-03-01T09:59:17.245Z,34.96
2018-03-01T10:00:17.239Z,35.26
2018-03-01T10:01:17.236Z,35.17
2018-03-01T10:02:17.230Z,35.26
2018-03-01T10:03:17.244Z,35.75
2018-03-01T10:04:17.225Z,35.38
2018-03-01T10:05:17.219Z,34.90
2018-03-01T10:06:17.215Z,34.80
2018-03-01T10:07:17.263Z,34.73
2018-03-01T10:08:17.205Z,34.54
2018-03-01T10:09:17.201Z,34.34
2018-03-01T10:10:17.195Z,34.55
2018-03-01T10:11:17.192Z,34.38
2018-03-01T10:12:17.188Z,33.80
2018-03-01T10:13:17.180Z,33.53
2018-03-01T10:14:17.177Z,33.45
2018-03-01T10:15:17.174Z,33.22
2018-03-01T10:16:17.171Z,32.75
2018-03-01T10:17:17.166Z,31.50
2018-03-01T10:18:17.164Z,30.63
2018-03-01T10:19:17.160Z,29.85
2018-03-01T10:20:17.157Z,29.93
2018-03-01T10:21:17.159Z,29.85
2018-03-01T10:22:17.156Z,29.46
2018-03-01T10:23:17.153Z,28.66
2018-03-01T10:24:17.152Z,29.32
2018-03-01T10:25:17.150Z,29.90
2018-03-01T10:26:17.154Z,29.82
2018-03-01T10:27:17.146Z,29.33
2018-03-01T10:28:17.146Z,28.94
2018-03-01T10:29:17.141Z,29.13
2018-03-01T10:30:17.139Z,29.22
2018-03-01T10:31:17.138Z,28.37
2018-03-01T10:32:17.136Z,28.26
2018-03-01T10:33:17.140Z,28.64
2018-03-01T10:34:17.133Z,28.74
2018-03-01T10:35:17.132Z,28.25
2018-03-01T10:36:17.128Z,28.33
2018-03-01T10:37:17.130Z,28.63
2018-03-01T10:38:17.127Z,28.83
2018-03-01T10:39:17.124Z,29.02
2018-03-01T10:40:17.126Z,28.45
2018-03-01T10:41:17.118Z,28.66
2018-03-01T10:42:17.118Z,28.74
2018-03-01T10:43:17.113Z,28.36
2018-03-01T10:44:17.112Z,28.44
2018-03-01T10:45:17.104Z,28.44
2018-03-01T10:46:17.101Z,28.53
2018-03-01T10:47:17.098Z,28.64
2018-03-01T10:48:17.092Z,28.74
2018-03-01T10:49:17.089Z,29.00
2018-03-01T10:50:17.086Z,29.02
2018-03-01T10:51:17.082Z,28.74
2018-03-01T10:52:17.078Z,28.83
2018-03-01T10:53:17.077Z,28.74
2018-03-01T10:54:17.072Z,28.92
2018-03-01T10:55:17.068Z,28.55
2018-03-01T10:56:17.064Z,28.53
2018-03-01T10:57:17.059Z,28.53
2018-03-01T10:58:17.055Z,28.53
2018-03-01T10:59:17.050Z,28.81
2018-03-01T11:00:17.045Z,28.55
2018-03-01T11:01:17.041Z,28.55
2018-03-01T11:02:17.034Z,28.64
2018-03-01T11:03:17.031Z,28.64
2018-03-01T11:04:17.024Z,28.45
2018-03-01T11:05:17.023Z,28.74
2018-03-01T11:06:17.018Z,28.25
2018-03-01T11:07:17.012Z,28.53
2018-03-01T11:08:17.006Z,28.53
2018-03-01T11:09:17.005Z,28.55
2018-03-01T11:10:17.000Z,28.45
2018-03-01T11:11:16.995Z,28.45
2018-03-01T11:12:16.990Z,28.64
2018-03-01T11:13:16.986Z,28.83
2018-03-01T11:14:16.980Z,28.45
2018-03-01T11:15:16.979Z,28.45
2018-03-01T11:16:16.970Z,28.06
2018-03-01T11:17:17.007Z,28.25
2018-03-01T11:18:16.961Z,28.74
2018-03-01T11:19:16.953Z,28.06
2018-03-01T11:20:16.948Z,28.15
2018-03-01T11:21:16.942Z,28.53
2018-03-01T11:22:16.938Z,28.36
2018-03-01T11:23:16.978Z,28.15
2018-03-01T11:24:16.926Z,28.53
2018-03-01T11:25:16.926Z,28.15
2018-03-01T11:26:16.919Z,28.26
2018-03-01T11:27:16.913Z,28.26
2018-03-01T11:28:16.907Z,28.72
2018-03-01T11:29:16.935Z,28.34
2018-03-01T11:30:16.896Z,28.04
2018-03-01T11:31:16.891Z,28.23
2018-03-01T11:32:16.884Z,28.42
2018-03-01T11:33:16.876Z,28.42
2018-03-01T11:34:16.870Z,28.72
2018-03-01T11:35:16.864Z,28.91
2018-03-01T11:36:16.857Z,28.91
2018-03-01T11:37:16.851Z,28.80
2018-03-01T11:38:16.845Z,28.61
2018-03-01T11:39:16.844Z,28.89
2018-03-01T11:40:16.832Z,29.08
2018-03-01T11:41:16.829Z,29.07
2018-03-01T11:42:16.821Z,29.18
2018-03-01T11:43:16.816Z,29.56
2018-03-01T11:44:16.808Z,29.65
2018-03-01T11:45:16.800Z,29.94
2018-03-01T11:46:16.794Z,30.03
2018-03-01T11:47:16.785Z,30.03
2018-03-01T11:48:16.779Z,29.94
2018-03-01T11:49:16.767Z,29.92
2018-03-01T11:50:16.758Z,29.92
2018-03-01T11:51:16.751Z,30.02
2018-03-01T11:52:16.742Z,29.84
2018-03-01T11:53:16.733Z,29.94
2018-03-01T11:54:16.726Z,29.83
2018-03-01T11:55:16.718Z,30.13
2018-03-01T11:56:16.708Z,30.13
2018-03-01T11:57:16.707Z,30.51
2018-03-01T11:58:16.693Z,30.79
2018-03-01T11:59:16.686Z,30.98
2018-03-01T12:00:16.676Z,30.79
2018-03-01T12:01:16.664Z,30.69
2018-03-01T12:02:16.656Z,30.88
2018-03-01T12:03:16.647Z,30.88
2018-03-01T12:04:16.637Z,30.51
2018-03-01T12:05:16.631Z,30.69
2018-03-01T12:06:16.622Z,30.98
2018-03-01T12:07:16.613Z,31.07
2018-03-01T12:08:16.605Z,31.83
2018-03-01T12:09:16.596Z,31.36
2018-03-01T12:10:16.587Z,30.51
2018-03-01T12:11:16.577Z,30.88
2018-03-01T12:12:16.567Z,30.79
2018-03-01T12:13:16.556Z,30.77
2018-03-01T12:14:16.548Z,30.79
2018-03-01T12:15:16.538Z,30.69
2018-03-01T12:16:16.527Z,30.88
2018-03-01T12:17:16.518Z,30.98
2018-03-01T12:18:16.508Z,31.07
2018-03-01T12:19:16.499Z,30.88
2018-03-01T12:20:16.489Z,31.26
2018-03-01T12:21:16.482Z,31.93
2018-03-01T12:22:16.472Z,30.79
2018-03-01T12:23:16.464Z,31.64
2018-03-01T12:24:16.453Z,31.36
2018-03-01T12:25:16.445Z,31.55
2018-03-01T12:26:16.435Z,31.45
2018-03-01T12:27:16.426Z,30.88
2018-03-01T12:28:16.414Z,30.88
2018-03-01T12:29:16.403Z,30.88
2018-03-01T12:30:16.393Z,30.88
2018-03-01T12:31:16.386Z,31.07
2018-03-01T12:32:16.373Z,31.45
2018-03-01T12:33:16.560Z,31.17
2018-03-01T12:34:16.354Z,30.88
2018-03-01T12:35:16.346Z,31.07
2018-03-01T12:36:16.335Z,30.88
2018-03-01T12:37:16.328Z,31.47
2018-03-01T12:38:16.328Z,31.09
2018-03-01T12:39:16.309Z,30.99
2018-03-01T12:40:16.300Z,30.90
2018-03-01T12:41:16.289Z,30.99
2018-03-01T12:42:16.284Z,31.28
2018-03-01T12:43:16.270Z,31.26
2018-03-01T12:44:16.260Z,31.17
2018-03-01T12:45:16.250Z,30.90
2018-03-01T12:46:16.241Z,30.79
2018-03-01T12:47:16.235Z,31.64
2018-03-01T12:48:16.220Z,31.26
2018-03-01T12:49:16.212Z,30.88
2018-03-01T12:50:16.201Z,31.26
2018-03-01T12:51:16.192Z,31.07
2018-03-01T12:52:16.183Z,30.69